Terminal Aerodrome Forecast
Issued by NWS

Home | Current Version | Previous Version | Text Only | Print | Product List | Glossary On
Versions: 1 2 3 4 5 6 7 8 9 10 11 12 13 14
481
FTUS45 KPIH 080524
TAFSUN
TAF
KSUN 080524Z 0806/0906 33009KT P6SM SCT200
     FM081900 12007KT P6SM SCT200
     FM090300 32011KT P6SM SKC
      AMD LTD TO CLD VIS AND WIND TIL 081400=

USA.gov is the U.S. government's official web portal to all federal, state and local government web resources and services.